sensor_id;sensor_type;location;lat;lon;timestamp;temperature;humidity
48946;DHT22;34999;50.940;3.998;2023-03-30T00:01:22;14.70;99.90
48946;DHT22;34999;50.940;3.998;2023-03-30T00:03:50;14.70;99.90
48946;DHT22;34999;50.940;3.998;2023-03-30T00:06:21;14.70;99.90
48946;DHT22;34999;50.940;3.998;2023-03-30T00:08:52;14.70;99.90
48946;DHT22;34999;50.940;3.998;2023-03-30T00:11:25;14.70;99.90
48946;DHT22;34999;50.940;3.998;2023-03-30T00:13:55;14.70;99.90
48946;DHT22;34999;50.940;3.998;2023-03-30T00:16:23;14.80;99.90
48946;DHT22;34999;50.940;3.998;2023-03-30T00:18:51;14.70;99.90
48946;DHT22;34999;50.940;3.998;2023-03-30T00:21:20;14.80;99.90
48946;DHT22;34999;50.940;3.998;2023-03-30T00:23:48;14.80;99.90
48946;DHT22;34999;50.940;3.998;2023-03-30T00:26:18;14.80;99.90
48946;DHT22;34999;50.940;3.998;2023-03-30T00:28:46;14.80;99.90
48946;DHT22;34999;50.940;3.998;2023-03-30T00:31:16;14.80;99.90
48946;DHT22;34999;50.940;3.998;2023-03-30T00:33:44;14.80;99.90
48946;DHT22;34999;50.940;3.998;2023-03-30T00:36:14;14.90;99.90
48946;DHT22;34999;50.940;3.998;2023-03-30T00:38:43;14.70;99.90
48946;DHT22;34999;50.940;3.998;2023-03-30T00:41:14;14.70;99.90
48946;DHT22;34999;50.940;3.998;2023-03-30T00:43:56;14.70;99.90
48946;DHT22;34999;50.940;3.998;2023-03-30T00:46:26;14.60;99.90
48946;DHT22;34999;50.940;3.998;2023-03-30T00:48:56;14.50;99.90
48946;DHT22;34999;50.940;3.998;2023-03-30T00:51:25;14.50;99.90
48946;DHT22;34999;50.940;3.998;2023-03-30T00:53:58;14.40;99.90
48946;DHT22;34999;50.940;3.998;2023-03-30T00:56:28;14.30;99.90
48946;DHT22;34999;50.940;3.998;2023-03-30T00:58:59;14.20;99.90
48946;DHT22;34999;50.940;3.998;2023-03-30T01:01:30;14.10;99.90
48946;DHT22;34999;50.940;3.998;2023-03-30T01:04:06;14.00;99.90
48946;DHT22;34999;50.940;3.998;2023-03-30T01:06:36;13.90;99.90
48946;DHT22;34999;50.940;3.998;2023-03-30T01:09:09;13.90;99.90
48946;DHT22;34999;50.940;3.998;2023-03-30T01:11:38;13.90;99.90
48946;DHT22;34999;50.940;3.998;2023-03-30T01:14:08;13.80;99.90
48946;DHT22;34999;50.940;3.998;2023-03-30T01:16:45;13.80;99.90
48946;DHT22;34999;50.940;3.998;2023-03-30T01:19:39;13.70;99.90
48946;DHT22;34999;50.940;3.998;2023-03-30T01:22:46;13.60;99.90
48946;DHT22;34999;50.940;3.998;2023-03-30T01:28:32;13.70;99.90
48946;DHT22;34999;50.940;3.998;2023-03-30T01:31:13;13.60;99.90
48946;DHT22;34999;50.940;3.998;2023-03-30T01:34:19;13.60;99.90
48946;DHT22;34999;50.940;3.998;2023-03-30T01:40:02;13.40;99.90
48946;DHT22;34999;50.940;3.998;2023-03-30T01:42:38;13.30;99.90
48946;DHT22;34999;50.940;3.998;2023-03-30T01:45:12;13.30;99.90
48946;DHT22;34999;50.940;3.998;2023-03-30T01:47:49;13.30;99.90
48946;DHT22;34999;50.940;3.998;2023-03-30T01:50:23;13.20;99.90
48946;DHT22;34999;50.940;3.998;2023-03-30T01:52:55;13.30;99.90
48946;DHT22;34999;50.940;3.998;2023-03-30T01:55:31;13.30;99.90
48946;DHT22;34999;50.940;3.998;2023-03-30T01:58:02;13.30;99.90
48946;DHT22;34999;50.940;3.998;2023-03-30T02:00:33;13.40;99.90
48946;DHT22;34999;50.940;3.998;2023-03-30T02:03:06;13.60;99.90
48946;DHT22;34999;50.940;3.998;2023-03-30T02:05:37;13.80;99.90
48946;DHT22;34999;50.940;3.998;2023-03-30T02:08:10;13.80;99.90
48946;DHT22;34999;50.940;3.998;2023-03-30T02:10:42;13.80;99.90
48946;DHT22;34999;50.940;3.998;2023-03-30T02:13:12;14.00;99.90
48946;DHT22;34999;50.940;3.998;2023-03-30T02:15:43;14.00;99.90
48946;DHT22;34999;50.940;3.998;2023-03-30T02:18:12;14.00;99.90
48946;DHT22;34999;50.940;3.998;2023-03-30T02:20:40;13.90;99.90
48946;DHT22;34999;50.940;3.998;2023-03-30T02:23:09;14.00;99.90
48946;DHT22;34999;50.940;3.998;2023-03-30T02:25:38;14.20;99.90
48946;DHT22;34999;50.940;3.998;2023-03-30T02:28:08;14.30;99.90
48946;DHT22;34999;50.940;3.998;2023-03-30T02:30:41;14.40;99.90
48946;DHT22;34999;50.940;3.998;2023-03-30T02:33:19;14.50;99.90
48946;DHT22;34999;50.940;3.998;2023-03-30T02:36:04;14.50;99.90
48946;DHT22;34999;50.940;3.998;2023-03-30T02:39:00;14.50;99.90
48946;DHT22;34999;50.940;3.998;2023-03-30T02:41:45;14.60;99.90
48946;DHT22;34999;50.940;3.998;2023-03-30T02:44:22;14.60;99.90
48946;DHT22;34999;50.940;3.998;2023-03-30T02:47:03;14.70;99.90
48946;DHT22;34999;50.940;3.998;2023-03-30T02:49:47;14.70;99.90
48946;DHT22;34999;50.940;3.998;2023-03-30T02:52:33;14.60;99.90
48946;DHT22;34999;50.940;3.998;2023-03-30T02:55:12;14.60;99.90
48946;DHT22;34999;50.940;3.998;2023-03-30T02:57:50;14.50;99.90
48946;DHT22;34999;50.940;3.998;2023-03-30T03:00:25;14.40;99.90
48946;DHT22;34999;50.940;3.998;2023-03-30T03:02:58;14.40;99.90
48946;DHT22;34999;50.940;3.998;2023-03-30T03:05:28;14.30;99.90
48946;DHT22;34999;50.940;3.998;2023-03-30T03:07:58;14.30;99.90
48946;DHT22;34999;50.940;3.998;2023-03-30T03:10:27;14.30;99.90
48946;DHT22;34999;50.940;3.998;2023-03-30T03:12:56;14.30;99.90
48946;DHT22;34999;50.940;3.998;2023-03-30T03:15:25;14.20;99.90
48946;DHT22;34999;50.940;3.998;2023-03-30T03:17:54;14.10;99.90
48946;DHT22;34999;50.940;3.998;2023-03-30T03:20:24;14.10;99.90
48946;DHT22;34999;50.940;3.998;2023-03-30T03:22:56;14.10;99.90
48946;DHT22;34999;50.940;3.998;2023-03-30T03:25:24;14.00;99.90
48946;DHT22;34999;50.940;3.998;2023-03-30T03:27:52;13.90;99.90
48946;DHT22;34999;50.940;3.998;2023-03-30T03:30:21;13.90;99.90
48946;DHT22;34999;50.940;3.998;2023-03-30T03:32:50;13.90;99.90
48946;DHT22;34999;50.940;3.998;2023-03-30T03:35:19;13.90;99.90
48946;DHT22;34999;50.940;3.998;2023-03-30T03:37:47;13.90;99.90
48946;DHT22;34999;50.940;3.998;2023-03-30T03:40:16;13.80;99.90
48946;DHT22;34999;50.940;3.998;2023-03-30T03:42:44;13.80;99.90
48946;DHT22;34999;50.940;3.998;2023-03-30T03:45:12;13.80;99.90
48946;DHT22;34999;50.940;3.998;2023-03-30T03:47:41;13.70;99.90
48946;DHT22;34999;50.940;3.998;2023-03-30T03:50:11;13.70;99.90
48946;DHT22;34999;50.940;3.998;2023-03-30T03:52:39;13.70;99.90
48946;DHT22;34999;50.940;3.998;2023-03-30T03:55:08;13.80;99.90
48946;DHT22;34999;50.940;3.998;2023-03-30T03:57:36;13.80;99.90
48946;DHT22;34999;50.940;3.998;2023-03-30T04:00:05;13.80;99.90
48946;DHT22;34999;50.940;3.998;2023-03-30T04:02:42;13.80;99.90
48946;DHT22;34999;50.940;3.998;2023-03-30T04:05:12;13.80;99.90
48946;DHT22;34999;50.940;3.998;2023-03-30T04:07:40;13.80;99.90
48946;DHT22;34999;50.940;3.998;2023-03-30T04:10:13;13.80;99.90
48946;DHT22;34999;50.940;3.998;2023-03-30T04:12:41;13.80;99.90
48946;DHT22;34999;50.940;3.998;2023-03-30T04:15:09;13.80;99.90
48946;DHT22;34999;50.940;3.998;2023-03-30T04:17:38;13.70;99.90
48946;DHT22;34999;50.940;3.998;2023-03-30T04:20:08;13.60;99.90
48946;DHT22;34999;50.940;3.998;2023-03-30T04:22:39;13.60;99.90
48946;DHT22;34999;50.940;3.998;2023-03-30T04:25:09;13.50;99.90
48946;DHT22;34999;50.940;3.998;2023-03-30T04:27:40;13.40;99.90
48946;DHT22;34999;50.940;3.998;2023-03-30T04:30:11;13.40;99.90
48946;DHT22;34999;50.940;3.998;2023-03-30T04:32:39;13.30;99.90
48946;DHT22;34999;50.940;3.998;2023-03-30T04:35:08;13.10;99.90
48946;DHT22;34999;50.940;3.998;2023-03-30T04:37:36;12.90;99.90
48946;DHT22;34999;50.940;3.998;2023-03-30T04:40:10;12.80;99.90
48946;DHT22;34999;50.940;3.998;2023-03-30T04:42:42;12.60;99.90
48946;DHT22;34999;50.940;3.998;2023-03-30T04:45:16;12.60;99.90
48946;DHT22;34999;50.940;3.998;2023-03-30T04:47:45;12.50;99.90
48946;DHT22;34999;50.940;3.998;2023-03-30T04:50:13;12.40;99.90
48946;DHT22;34999;50.940;3.998;2023-03-30T04:52:42;12.40;99.90
48946;DHT22;34999;50.940;3.998;2023-03-30T04:55:12;12.30;99.90
48946;DHT22;34999;50.940;3.998;2023-03-30T04:57:40;12.30;99.90
48946;DHT22;34999;50.940;3.998;2023-03-30T05:00:09;12.40;99.90
48946;DHT22;34999;50.940;3.998;2023-03-30T05:02:38;12.40;99.90
48946;DHT22;34999;50.940;3.998;2023-03-30T05:05:07;12.40;99.90
48946;DHT22;34999;50.940;3.998;2023-03-30T05:07:35;12.30;99.90
48946;DHT22;34999;50.940;3.998;2023-03-30T05:10:04;12.30;99.90
48946;DHT22;34999;50.940;3.998;2023-03-30T05:12:34;12.30;99.90
48946;DHT22;34999;50.940;3.998;2023-03-30T05:15:02;12.30;99.90
48946;DHT22;34999;50.940;3.998;2023-03-30T05:17:31;12.20;99.90
48946;DHT22;34999;50.940;3.998;2023-03-30T05:20:00;12.20;99.90
48946;DHT22;34999;50.940;3.998;2023-03-30T05:22:34;12.10;99.90
48946;DHT22;34999;50.940;3.998;2023-03-30T05:25:03;12.10;99.90
48946;DHT22;34999;50.940;3.998;2023-03-30T05:27:33;12.10;99.90
48946;DHT22;34999;50.940;3.998;2023-03-30T05:30:02;12.10;99.90
48946;DHT22;34999;50.940;3.998;2023-03-30T05:32:30;12.10;99.90
48946;DHT22;34999;50.940;3.998;2023-03-30T05:34:58;12.10;99.90
48946;DHT22;34999;50.940;3.998;2023-03-30T05:37:27;12.00;99.90
48946;DHT22;34999;50.940;3.998;2023-03-30T05:39:55;11.90;99.90
48946;DHT22;34999;50.940;3.998;2023-03-30T05:42:24;11.90;99.90
48946;DHT22;34999;50.940;3.998;2023-03-30T05:44:53;11.80;99.90
48946;DHT22;34999;50.940;3.998;2023-03-30T05:47:22;11.90;99.90
48946;DHT22;34999;50.940;3.998;2023-03-30T05:49:50;11.90;99.90
48946;DHT22;34999;50.940;3.998;2023-03-30T05:52:19;11.90;99.90
48946;DHT22;34999;50.940;3.998;2023-03-30T05:54:48;11.90;99.90
48946;DHT22;34999;50.940;3.998;2023-03-30T05:57:16;11.90;99.90
48946;DHT22;34999;50.940;3.998;2023-03-30T05:59:45;12.00;99.90
48946;DHT22;34999;50.940;3.998;2023-03-30T06:02:15;12.10;99.90
48946;DHT22;34999;50.940;3.998;2023-03-30T06:04:43;12.10;99.90
48946;DHT22;34999;50.940;3.998;2023-03-30T06:07:12;12.20;99.90
48946;DHT22;34999;50.940;3.998;2023-03-30T06:09:40;12.20;99.90
48946;DHT22;34999;50.940;3.998;2023-03-30T06:12:09;12.20;99.90
48946;DHT22;34999;50.940;3.998;2023-03-30T06:14:37;12.20;99.90
48946;DHT22;34999;50.940;3.998;2023-03-30T06:17:05;12.20;99.90
48946;DHT22;34999;50.940;3.998;2023-03-30T06:19:36;12.20;99.90
48946;DHT22;34999;50.940;3.998;2023-03-30T06:22:05;12.10;99.90
48946;DHT22;34999;50.940;3.998;2023-03-30T06:24:33;12.10;99.90
48946;DHT22;34999;50.940;3.998;2023-03-30T06:27:01;12.10;99.90
48946;DHT22;34999;50.940;3.998;2023-03-30T06:29:30;12.30;99.90
48946;DHT22;34999;50.940;3.998;2023-03-30T06:31:58;12.40;99.90
48946;DHT22;34999;50.940;3.998;2023-03-30T06:34:27;12.60;99.90
48946;DHT22;34999;50.940;3.998;2023-03-30T06:36:57;12.90;99.90
48946;DHT22;34999;50.940;3.998;2023-03-30T06:39:25;13.10;99.90
48946;DHT22;34999;50.940;3.998;2023-03-30T06:41:53;13.40;99.90
48946;DHT22;34999;50.940;3.998;2023-03-30T06:44:22;13.80;99.90
48946;DHT22;34999;50.940;3.998;2023-03-30T06:46:50;14.10;99.90
48946;DHT22;34999;50.940;3.998;2023-03-30T06:49:19;14.40;99.90
48946;DHT22;34999;50.940;3.998;2023-03-30T06:51:47;14.40;99.90
48946;DHT22;34999;50.940;3.998;2023-03-30T06:54:17;14.60;99.90
48946;DHT22;34999;50.940;3.998;2023-03-30T06:56:46;14.70;99.90
48946;DHT22;34999;50.940;3.998;2023-03-30T06:59:16;14.50;99.90
48946;DHT22;34999;50.940;3.998;2023-03-30T07:01:44;14.30;99.90
48946;DHT22;34999;50.940;3.998;2023-03-30T07:04:12;14.10;99.90
48946;DHT22;34999;50.940;3.998;2023-03-30T07:06:40;13.80;99.90
48946;DHT22;34999;50.940;3.998;2023-03-30T07:09:09;13.70;99.90
48946;DHT22;34999;50.940;3.998;2023-03-30T07:11:40;13.70;99.90
48946;DHT22;34999;50.940;3.998;2023-03-30T07:14:08;13.70;99.90
48946;DHT22;34999;50.940;3.998;2023-03-30T07:16:39;14.00;99.90
48946;DHT22;34999;50.940;3.998;2023-03-30T07:19:07;14.30;99.90
48946;DHT22;34999;50.940;3.998;2023-03-30T07:21:36;14.60;99.90
48946;DHT22;34999;50.940;3.998;2023-03-30T07:24:04;14.90;99.90
48946;DHT22;34999;50.940;3.998;2023-03-30T07:26:33;15.10;99.90
48946;DHT22;34999;50.940;3.998;2023-03-30T07:29:03;15.00;99.90
48946;DHT22;34999;50.940;3.998;2023-03-30T07:31:32;14.80;99.90
48946;DHT22;34999;50.940;3.998;2023-03-30T07:34:00;14.80;99.90
48946;DHT22;34999;50.940;3.998;2023-03-30T07:36:30;14.70;99.90
48946;DHT22;34999;50.940;3.998;2023-03-30T07:38:58;14.50;99.90
48946;DHT22;34999;50.940;3.998;2023-03-30T07:41:27;14.30;99.90
48946;DHT22;34999;50.940;3.998;2023-03-30T07:43:55;14.20;99.90
48946;DHT22;34999;50.940;3.998;2023-03-30T07:46:25;14.10;99.90
48946;DHT22;34999;50.940;3.998;2023-03-30T07:48:53;14.00;99.90
48946;DHT22;34999;50.940;3.998;2023-03-30T07:51:22;13.90;99.90
48946;DHT22;34999;50.940;3.998;2023-03-30T07:53:53;13.80;99.90
48946;DHT22;34999;50.940;3.998;2023-03-30T07:56:22;13.80;99.90
48946;DHT22;34999;50.940;3.998;2023-03-30T07:58:50;13.80;99.90
48946;DHT22;34999;50.940;3.998;2023-03-30T08:01:18;13.90;99.90
48946;DHT22;34999;50.940;3.998;2023-03-30T08:03:48;14.00;99.90
48946;DHT22;34999;50.940;3.998;2023-03-30T08:06:16;14.10;99.90
48946;DHT22;34999;50.940;3.998;2023-03-30T08:08:45;14.00;99.90
48946;DHT22;34999;50.940;3.998;2023-03-30T08:11:13;14.00;99.90
48946;DHT22;34999;50.940;3.998;2023-03-30T08:13:42;14.10;99.90
48946;DHT22;34999;50.940;3.998;2023-03-30T08:16:10;14.40;99.90
48946;DHT22;34999;50.940;3.998;2023-03-30T08:18:38;15.00;99.90
48946;DHT22;34999;50.940;3.998;2023-03-30T08:21:09;15.40;99.90
48946;DHT22;34999;50.940;3.998;2023-03-30T08:23:38;16.40;99.90
48946;DHT22;34999;50.940;3.998;2023-03-30T08:26:06;17.50;99.90
48946;DHT22;34999;50.940;3.998;2023-03-30T08:28:34;18.30;99.90
48946;DHT22;34999;50.940;3.998;2023-03-30T08:31:04;19.00;99.90
48946;DHT22;34999;50.940;3.998;2023-03-30T08:33:33;19.10;99.90
48946;DHT22;34999;50.940;3.998;2023-03-30T08:36:02;19.20;99.90
48946;DHT22;34999;50.940;3.998;2023-03-30T08:38:32;19.20;99.90
48946;DHT22;34999;50.940;3.998;2023-03-30T08:41:00;18.80;99.90
48946;DHT22;34999;50.940;3.998;2023-03-30T08:43:48;17.90;99.90
48946;DHT22;34999;50.940;3.998;2023-03-30T08:46:19;17.90;99.90
48946;DHT22;34999;50.940;3.998;2023-03-30T08:48:49;18.40;99.90
48946;DHT22;34999;50.940;3.998;2023-03-30T08:51:21;18.70;99.90
48946;DHT22;34999;50.940;3.998;2023-03-30T08:53:54;18.10;99.90
48946;DHT22;34999;50.940;3.998;2023-03-30T08:56:29;17.30;99.90
48946;DHT22;34999;50.940;3.998;2023-03-30T08:59:05;16.90;99.90
48946;DHT22;34999;50.940;3.998;2023-03-30T09:01:44;16.40;99.90
48946;DHT22;34999;50.940;3.998;2023-03-30T09:04:20;16.20;99.90
48946;DHT22;34999;50.940;3.998;2023-03-30T09:06:55;16.60;99.90
48946;DHT22;34999;50.940;3.998;2023-03-30T09:09:28;16.90;99.90
48946;DHT22;34999;50.940;3.998;2023-03-30T09:12:03;17.20;99.90
48946;DHT22;34999;50.940;3.998;2023-03-30T09:14:36;17.00;99.90
48946;DHT22;34999;50.940;3.998;2023-03-30T09:17:07;16.60;99.90
48946;DHT22;34999;50.940;3.998;2023-03-30T09:19:45;16.10;99.90
48946;DHT22;34999;50.940;3.998;2023-03-30T09:22:14;15.70;99.90
48946;DHT22;34999;50.940;3.998;2023-03-30T09:24:45;15.20;99.90
48946;DHT22;34999;50.940;3.998;2023-03-30T09:27:17;14.70;99.90
48946;DHT22;34999;50.940;3.998;2023-03-30T09:29:47;14.30;99.90
48946;DHT22;34999;50.940;3.998;2023-03-30T09:32:24;14.50;99.90
48946;DHT22;34999;50.940;3.998;2023-03-30T09:34:59;15.50;99.90
48946;DHT22;34999;50.940;3.998;2023-03-30T09:37:29;15.80;99.90
48946;DHT22;34999;50.940;3.998;2023-03-30T09:40:01;16.00;99.90
48946;DHT22;34999;50.940;3.998;2023-03-30T09:42:43;16.50;99.90
48946;DHT22;34999;50.940;3.998;2023-03-30T09:45:20;16.60;99.90
48946;DHT22;34999;50.940;3.998;2023-03-30T09:47:49;16.40;99.90
48946;DHT22;34999;50.940;3.998;2023-03-30T09:50:20;16.20;99.90
48946;DHT22;34999;50.940;3.998;2023-03-30T09:52:55;16.30;99.90
48946;DHT22;34999;50.940;3.998;2023-03-30T09:55:28;16.40;99.90
48946;DHT22;34999;50.940;3.998;2023-03-30T09:58:10;16.70;99.90
48946;DHT22;34999;50.940;3.998;2023-03-30T10:00:39;17.60;99.90
48946;DHT22;34999;50.940;3.998;2023-03-30T10:03:18;18.20;99.90
48946;DHT22;34999;50.940;3.998;2023-03-30T10:06:03;18.20;99.90
48946;DHT22;34999;50.940;3.998;2023-03-30T10:08:33;17.60;99.90
48946;DHT22;34999;50.940;3.998;2023-03-30T10:11:05;17.20;99.90
48946;DHT22;34999;50.940;3.998;2023-03-30T10:13:36;17.00;99.90
48946;DHT22;34999;50.940;3.998;2023-03-30T10:16:07;16.60;99.90
48946;DHT22;34999;50.940;3.998;2023-03-30T10:18:43;16.10;99.90
48946;DHT22;34999;50.940;3.998;2023-03-30T10:21:17;15.70;99.90
48946;DHT22;34999;50.940;3.998;2023-03-30T10:23:58;15.20;99.90
48946;DHT22;34999;50.940;3.998;2023-03-30T10:26:30;15.00;99.90
48946;DHT22;34999;50.940;3.998;2023-03-30T10:29:01;15.80;99.90
48946;DHT22;34999;50.940;3.998;2023-03-30T10:31:33;16.70;99.90
48946;DHT22;34999;50.940;3.998;2023-03-30T10:34:04;17.10;99.90
48946;DHT22;34999;50.940;3.998;2023-03-30T10:36:38;17.20;99.90
48946;DHT22;34999;50.940;3.998;2023-03-30T10:39:11;17.00;99.90
48946;DHT22;34999;50.940;3.998;2023-03-30T10:41:43;16.70;99.90
48946;DHT22;34999;50.940;3.998;2023-03-30T10:44:24;16.80;99.90
48946;DHT22;34999;50.940;3.998;2023-03-30T10:47:10;17.80;99.90
48946;DHT22;34999;50.940;3.998;2023-03-30T10:49:51;18.50;99.90
48946;DHT22;34999;50.940;3.998;2023-03-30T10:52:28;18.20;99.90
48946;DHT22;34999;50.940;3.998;2023-03-30T10:55:02;17.80;99.90
48946;DHT22;34999;50.940;3.998;2023-03-30T10:57:43;17.70;99.90
48946;DHT22;34999;50.940;3.998;2023-03-30T11:00:22;17.70;99.90
48946;DHT22;34999;50.940;3.998;2023-03-30T11:03:00;17.50;99.90
48946;DHT22;34999;50.940;3.998;2023-03-30T11:05:33;17.40;99.90
48946;DHT22;34999;50.940;3.998;2023-03-30T11:08:05;17.50;99.90
48946;DHT22;34999;50.940;3.998;2023-03-30T11:10:36;17.90;99.90
48946;DHT22;34999;50.940;3.998;2023-03-30T11:13:12;18.70;99.90
48946;DHT22;34999;50.940;3.998;2023-03-30T11:15:46;19.20;99.90
48946;DHT22;34999;50.940;3.998;2023-03-30T11:18:19;18.80;99.90
48946;DHT22;34999;50.940;3.998;2023-03-30T11:20:53;18.70;99.90
48946;DHT22;34999;50.940;3.998;2023-03-30T11:23:32;19.20;99.90
48946;DHT22;34999;50.940;3.998;2023-03-30T11:26:05;20.10;99.90
48946;DHT22;34999;50.940;3.998;2023-03-30T11:28:54;20.00;99.90
48946;DHT22;34999;50.940;3.998;2023-03-30T11:31:39;19.10;99.90
48946;DHT22;34999;50.940;3.998;2023-03-30T11:34:15;18.20;99.90
48946;DHT22;34999;50.940;3.998;2023-03-30T11:36:53;17.90;99.90
48946;DHT22;34999;50.940;3.998;2023-03-30T11:39:29;18.10;99.90
48946;DHT22;34999;50.940;3.998;2023-03-30T11:42:04;18.90;99.90
48946;DHT22;34999;50.940;3.998;2023-03-30T11:44:38;19.60;99.90
48946;DHT22;34999;50.940;3.998;2023-03-30T11:47:20;19.90;99.90
48946;DHT22;34999;50.940;3.998;2023-03-30T11:50:04;19.70;99.90
48946;DHT22;34999;50.940;3.998;2023-03-30T11:52:40;19.90;99.90
48946;DHT22;34999;50.940;3.998;2023-03-30T11:55:23;19.80;99.90
48946;DHT22;34999;50.940;3.998;2023-03-30T11:58:04;20.00;99.90
48946;DHT22;34999;50.940;3.998;2023-03-30T12:00:47;20.20;99.90
48946;DHT22;34999;50.940;3.998;2023-03-30T12:03:34;19.70;99.90
48946;DHT22;34999;50.940;3.998;2023-03-30T12:06:24;19.20;99.90
48946;DHT22;34999;50.940;3.998;2023-03-30T12:09:21;18.90;99.90
48946;DHT22;34999;50.940;3.998;2023-03-30T12:11:56;18.90;99.90
48946;DHT22;34999;50.940;3.998;2023-03-30T12:14:48;19.50;99.90
48946;DHT22;34999;50.940;3.998;2023-03-30T12:17:33;19.30;99.90
48946;DHT22;34999;50.940;3.998;2023-03-30T12:20:10;19.10;99.90
48946;DHT22;34999;50.940;3.998;2023-03-30T12:22:46;19.00;99.90
48946;DHT22;34999;50.940;3.998;2023-03-30T12:25:25;19.10;99.90
48946;DHT22;34999;50.940;3.998;2023-03-30T12:28:02;18.70;99.90
48946;DHT22;34999;50.940;3.998;2023-03-30T12:30:42;18.30;99.90
48946;DHT22;34999;50.940;3.998;2023-03-30T12:33:16;18.30;99.90
48946;DHT22;34999;50.940;3.998;2023-03-30T12:35:57;18.30;99.90
48946;DHT22;34999;50.940;3.998;2023-03-30T12:38:33;18.10;99.90
48946;DHT22;34999;50.940;3.998;2023-03-30T12:41:09;17.80;99.90
48946;DHT22;34999;50.940;3.998;2023-03-30T12:44:20;17.70;99.90
48946;DHT22;34999;50.940;3.998;2023-03-30T12:47:02;17.60;99.90
48946;DHT22;34999;50.940;3.998;2023-03-30T12:49:45;17.50;99.90
48946;DHT22;34999;50.940;3.998;2023-03-30T12:52:26;17.50;99.90
48946;DHT22;34999;50.940;3.998;2023-03-30T12:55:08;17.70;99.90
48946;DHT22;34999;50.940;3.998;2023-03-30T12:57:55;17.70;99.90
48946;DHT22;34999;50.940;3.998;2023-03-30T13:00:57;17.90;99.90
48946;DHT22;34999;50.940;3.998;2023-03-30T13:03:38;18.10;99.90
48946;DHT22;34999;50.940;3.998;2023-03-30T13:06:17;18.00;99.90
48946;DHT22;34999;50.940;3.998;2023-03-30T13:08:53;17.80;99.90
48946;DHT22;34999;50.940;3.998;2023-03-30T13:11:22;17.50;99.90
48946;DHT22;34999;50.940;3.998;2023-03-30T13:13:53;17.50;99.90
48946;DHT22;34999;50.940;3.998;2023-03-30T13:19:39;17.80;99.90
48946;DHT22;34999;50.940;3.998;2023-03-30T13:22:24;18.00;99.90
48946;DHT22;34999;50.940;3.998;2023-03-30T13:24:58;18.30;99.90
48946;DHT22;34999;50.940;3.998;2023-03-30T13:27:34;18.30;99.90
48946;DHT22;34999;50.940;3.998;2023-03-30T13:30:12;18.10;99.90
48946;DHT22;34999;50.940;3.998;2023-03-30T13:32:54;18.00;99.90
48946;DHT22;34999;50.940;3.998;2023-03-30T13:35:39;18.00;99.90
48946;DHT22;34999;50.940;3.998;2023-03-30T13:38:27;17.80;99.90
48946;DHT22;34999;50.940;3.998;2023-03-30T13:41:04;18.00;99.90
48946;DHT22;34999;50.940;3.998;2023-03-30T13:43:45;18.00;99.90
48946;DHT22;34999;50.940;3.998;2023-03-30T13:46:22;18.00;99.90
48946;DHT22;34999;50.940;3.998;2023-03-30T13:49:07;18.10;99.90
48946;DHT22;34999;50.940;3.998;2023-03-30T13:51:38;18.00;99.90
48946;DHT22;34999;50.940;3.998;2023-03-30T13:54:14;17.80;99.90
48946;DHT22;34999;50.940;3.998;2023-03-30T13:56:47;17.60;99.90
48946;DHT22;34999;50.940;3.998;2023-03-30T13:59:19;17.60;99.90
48946;DHT22;34999;50.940;3.998;2023-03-30T14:01:51;17.40;99.90
48946;DHT22;34999;50.940;3.998;2023-03-30T14:04:20;17.30;99.90
48946;DHT22;34999;50.940;3.998;2023-03-30T14:06:48;17.60;99.90
48946;DHT22;34999;50.940;3.998;2023-03-30T14:09:23;17.80;99.90
48946;DHT22;34999;50.940;3.998;2023-03-30T14:11:54;18.10;99.90
48946;DHT22;34999;50.940;3.998;2023-03-30T14:14:30;18.00;99.90
48946;DHT22;34999;50.940;3.998;2023-03-30T14:17:01;17.90;99.90
48946;DHT22;34999;50.940;3.998;2023-03-30T14:19:32;17.80;99.90
48946;DHT22;34999;50.940;3.998;2023-03-30T14:22:08;17.80;99.90
48946;DHT22;34999;50.940;3.998;2023-03-30T14:24:38;17.50;99.90
48946;DHT22;34999;50.940;3.998;2023-03-30T14:27:22;16.90;99.90
48946;DHT22;34999;50.940;3.998;2023-03-30T14:29:51;16.40;99.90
48946;DHT22;34999;50.940;3.998;2023-03-30T14:32:20;16.50;99.90
48946;DHT22;34999;50.940;3.998;2023-03-30T14:34:52;16.80;99.90
48946;DHT22;34999;50.940;3.998;2023-03-30T14:37:22;17.20;99.90
48946;DHT22;34999;50.940;3.998;2023-03-30T14:39:54;17.30;99.90
48946;DHT22;34999;50.940;3.998;2023-03-30T14:42:25;17.50;99.90
48946;DHT22;34999;50.940;3.998;2023-03-30T14:44:57;17.40;99.90
48946;DHT22;34999;50.940;3.998;2023-03-30T14:47:26;17.10;99.90
48946;DHT22;34999;50.940;3.998;2023-03-30T14:49:57;16.80;99.90
48946;DHT22;34999;50.940;3.998;2023-03-30T14:52:31;16.70;99.90
48946;DHT22;34999;50.940;3.998;2023-03-30T14:55:01;16.50;99.90
48946;DHT22;34999;50.940;3.998;2023-03-30T14:57:38;16.40;99.90
48946;DHT22;34999;50.940;3.998;2023-03-30T15:00:12;16.30;99.90
48946;DHT22;34999;50.940;3.998;2023-03-30T15:02:45;16.00;99.90
48946;DHT22;34999;50.940;3.998;2023-03-30T15:05:16;15.70;99.90
48946;DHT22;34999;50.940;3.998;2023-03-30T15:07:47;15.50;99.90
48946;DHT22;34999;50.940;3.998;2023-03-30T15:10:22;15.50;99.90
48946;DHT22;34999;50.940;3.998;2023-03-30T15:12:52;15.70;99.90
48946;DHT22;34999;50.940;3.998;2023-03-30T15:15:26;16.20;99.90
48946;DHT22;34999;50.940;3.998;2023-03-30T15:17:56;16.50;99.90
48946;DHT22;34999;50.940;3.998;2023-03-30T15:20:27;16.80;99.90
48946;DHT22;34999;50.940;3.998;2023-03-30T15:22:57;17.20;99.90
48946;DHT22;34999;50.940;3.998;2023-03-30T15:25:31;17.30;99.90
48946;DHT22;34999;50.940;3.998;2023-03-30T15:28:02;16.90;99.90
48946;DHT22;34999;50.940;3.998;2023-03-30T15:30:34;16.80;99.90
48946;DHT22;34999;50.940;3.998;2023-03-30T15:33:04;16.70;99.90
48946;DHT22;34999;50.940;3.998;2023-03-30T15:35:34;16.50;99.90
48946;DHT22;34999;50.940;3.998;2023-03-30T15:38:14;16.30;99.90
48946;DHT22;34999;50.940;3.998;2023-03-30T15:40:45;16.30;99.90
48946;DHT22;34999;50.940;3.998;2023-03-30T15:43:18;16.50;99.90
48946;DHT22;34999;50.940;3.998;2023-03-30T15:45:50;16.80;99.90
48946;DHT22;34999;50.940;3.998;2023-03-30T15:48:21;17.20;99.90
48946;DHT22;34999;50.940;3.998;2023-03-30T15:50:54;17.40;99.90
48946;DHT22;34999;50.940;3.998;2023-03-30T15:53:33;17.30;99.90
48946;DHT22;34999;50.940;3.998;2023-03-30T15:56:08;17.10;99.90
48946;DHT22;34999;50.940;3.998;2023-03-30T15:58:39;16.70;99.90
48946;DHT22;34999;50.940;3.998;2023-03-30T16:01:11;16.40;99.90
48946;DHT22;34999;50.940;3.998;2023-03-30T16:03:49;16.20;99.90
48946;DHT22;34999;50.940;3.998;2023-03-30T16:06:19;16.10;99.90
48946;DHT22;34999;50.940;3.998;2023-03-30T16:08:48;15.90;99.90
48946;DHT22;34999;50.940;3.998;2023-03-30T16:11:18;15.70;99.90
48946;DHT22;34999;50.940;3.998;2023-03-30T16:13:47;15.60;99.90
48946;DHT22;34999;50.940;3.998;2023-03-30T16:16:16;15.60;99.90